NCAR-RAP Real-Time Weather Data

Output produced by METARs form (17 July 2018  09:30 UTC)
found at http://weather.rap.ucar.edu/surface/
 
KSYR 170854Z 00000KT 10SM TS SCT050CB OVC140 22/22 A2981 RMK AO2 LTG DSNT S SLP087 TSB48 OCNL LTGIC SW TS SW MOV NE 60000 T02170217 55005
KSYR 170754Z 14004KT 10SM FEW095 OVC110 22/22 A2980 RMK AO2 RAE33 SLP084 P0000 T02170217
KSYR 170654Z 20003KT 10SM -RA FEW070 SCT110 OVC150 22/22 A2982 RMK AO2 SLP091 P0000 T02220217
KSYR 170554Z 16007KT 10SM -RA FEW070 SCT120 OVC140 22/21 A2982 RMK AO2 RAE20B51 SLP093 PCPN VRY LGT P0000 60001 T02220211 10233 20217 58010
KSYR 170454Z 17005KT 10SM -RA FEW048 BKN065 OVC120 23/21 A2984 RMK AO2 RAB41 SLP098 PCPN VRY LGT P0000 T02280211 403500189
KSYR 170354Z 16010KT 10SM FEW085 BKN100 OVC110 23/21 A2985 RMK AO2 LTG DSNT SE RAB26E35 SLP101 P0000 T02280211
KSYR 170254Z 09007KT 10SM FEW070 SCT120 BKN180 BKN250 22/22 A2985 RMK AO2 LTG DSNT SE AND S SLP103 60001 T02220222 56004
KSYR 170154Z 16004KT 10SM FEW070 SCT120 BKN250 22/22 A2986 RMK AO2 LTG DSNT SE AND S PRESRR SLP105 T02220222
KSYR 170054Z 10005KT 10SM SCT050 BKN120 BKN250 22/22 A2985 RMK AO2 LTG DSNT NE-S RAE08 SLP101 P0001 T02220222
KSYR 162354Z 16011KT 6SM -RA BR SCT025 BKN050 BKN095 23/23 A2987 RMK AO2 WSHFT 2336 LTG DSNT ALQDS RAB20 TSB11E54 SLP108 TS MOVD NE OCNL LTGICCC DSNT N-E CB DSNT N-E P0010 60010 T02280228 10350 20228 53012
KSYR 162344Z 16012KT 4SM -TSRA BR BKN025 BKN040 OVC070 23/23 A2987 RMK AO2 WSHFT 2324 LTG DSNT E-SW RAB20 TSB11 OCNL LTGICCC OHD TS OHD MOV NE P0010 T02330233
KSYR 162321Z 27019G23KT 3SM -TSRA BKN025CB BKN070 OVC140 28/22 A2985 RMK AO2 LTG DSNT SE-SW RAB20 TSB11 PRESRR OCNL LTGICCC OHD TS OHD MOV NE P0000 T02780222
KSYR 162311Z VRB03KT 10SM TS SCT040CB BKN070 BKN140 BKN250 28/21 A2982 RMK AO2 LTG DSNT S AND SW TSB11 OCNL LTGICCC OHD TS OHD MOV NE T02830211
KSYR 162254Z 09007KT 10SM SCT040CB BKN070 BKN140 BKN250 28/22 A2981 RMK AO2 LTG DSNT S AND SW SLP090 OCNL LTGICCC DSNT S CB S-W MOV NE T02780217
KSYR 162154Z 07005KT 10SM SCT060 BKN140 BKN250 31/22 A2982 RMK AO2 LTG DSNT W SLP090 T03110222
KSYR 162054Z 06006KT 10SM SCT060 BKN200 BKN250 33/23 A2983 RMK AO2 SLP094 T03330228 56020
KSYR 161954Z 05008KT 10SM SCT060 SCT200 BKN250 34/23 A2985 RMK AO2 SLP101 T03390228
KSYR 161854Z VRB06KT 10SM SCT060 SCT200 BKN250 34/20 A2986 RMK AO2 SLP106 T03440200
KSYR 161754Z 23007KT 10SM SCT055 BKN200 BKN250 34/21 A2989 RMK AO2 SLP115 T03390206 10339 20222 58017
KSYR 161654Z 00000KT 10SM FEW055 FEW200 SCT250 32/21 A2991 RMK AO2 SLP123 MOD CU SE T03220211
KSYR 161554Z VRB03KT 10SM SCT055 SCT200 BKN250 31/22 A2993 RMK AO2 SLP129 T03110222
KSYR 161454Z VRB05KT 10SM FEW055 FEW200 BKN250 30/22 A2994 RMK AO2 SLP132 T03000222 58009
KSYR 161354Z 00000KT 10SM FEW055 FEW200 BKN250 28/22 A2995 RMK AO2 SLP136 T02780217
KSYR 161254Z 00000KT 10SM FEW055 FEW200 SCT250 24/21 A2996 RMK AO2 SLP139 T02440206
KSYR 161154Z 00000KT 10SM FEW050 FEW200 SCT250 22/20 A2997 RMK AO2 SLP141 T02220200 10222 20189 53003
KSYR 161054Z 08004KT 10SM FEW060 SCT200 20/20 A2996 RMK AO2 SLP139 T02000200 $
KSYR 160954Z 09003KT 10SM FEW060 SCT200 19/19 A2996 RMK AO2 SLP138 T01890189 $
KSYR 160854Z 10004KT 10SM SCT060 SCT200 19/19 A2996 RMK AO2 SLP138 T01940194 50001 $
KSYR 160754Z 11004KT 10SM SCT250 20/19 A2996 RMK AO2 SLP138 T02000194 $
KSYR 160654Z 10005KT 10SM FEW250 19/19 A2995 RMK AO2 SLP137 T01940194 $
KSYR 160554Z 10005KT 10SM FEW250 20/19 A2996 RMK AO2 SLP137 T02000194 10272 20200 58002 $
KSYR 160454Z 15003KT 10SM FEW250 21/19 A2997 RMK AO2 SLP141 T02110194 403220206 $
KSYR 160354Z 11003KT 10SM FEW250 22/19 A2997 RMK AO2 SLP142 T02170194 $
KSYR 160254Z 00000KT 10SM FEW250 23/19 A2996 RMK AO2 SLP139 T02280194 51007 $
KSYR 160154Z 00000KT 10SM FEW250 23/19 A2996 RMK AO2 SLP139 T02330189 $
KSYR 160054Z 00000KT 10SM CLR 24/19 A2995 RMK AO2 SLP134 T02440189 $
KSYR 152354Z 02006KT 10SM FEW250 27/19 A2994 RMK AO2 SLP132 T02720194 10322 20272 51003 $
KSYR 152254Z 34007KT 10SM FEW060 FEW250 29/21 A2994 RMK AO2 SLP132 T02890206 $
KSYR 152154Z 32009KT 10SM FEW060 FEW250 31/21 A2993 RMK AO2 SLP130 T03060206 $
KSYR 152054Z VRB03G15KT 10SM FEW055 SCT250 31/21 A2993 RMK AO2 SLP129 T03060206 58012 $
KSYR 151954Z 29005KT 10SM SCT055 32/19 A2994 RMK AO2 SLP133 T03170189 $
KSYR 151854Z 26005KT 10SM SCT050 32/19 A2996 RMK AO2 SLP137 T03170194 $
KSYR 151754Z 00000KT 10SM SCT050 31/19 A2997 RMK AO2 SLP141 SCT V BKN T03110194 10311 20228 58007 $
KSYR 151654Z VRB04KT 10SM FEW040 SCT250 30/21 A2998 RMK AO2 SLP145 FEW V SCT T03000206 $
KSYR 151554Z 24006KT 10SM FEW032 SCT250 28/22 A2998 RMK AO2 SLP145 SCT V FEW T02830217 $
KSYR 151454Z 28003KT 10SM FEW027 SCT065 SCT250 27/21 A2999 RMK AO2 SLP148 T02720211 55005 $
KSYR 151354Z VRB03KT 10SM FEW020 SCT065 BKN250 26/21 A2998 RMK AO2 SLP146 SCT V BKN T02560211 $
KSYR 151254Z 27003KT 10SM FEW070 SCT140 SCT250 24/21 A3000 RMK AO2 SLP151 T02440211 $
KSYR 151154Z 00000KT 10SM BKN075 OVC110 23/22 A3000 RMK AO2 SLP155 60000 70003 T02280217 10233 20211 53004 $
KSYR 151054Z 00000KT 10SM BKN075 BKN110 OVC200 22/21 A3000 RMK AO2 SLP153 T02170211 $
KSYR 150954Z 00000KT 10SM SCT060 BKN075 BKN110 21/21 A3000 RMK AO2 SLP152 T02110211 $
KSYR 150854Z 10003KT 10SM SCT060 BKN085 OVC120 21/21 A2999 RMK AO2 SLP150 60000 T02110211 56005 $
KSYR 150754Z 00000KT 10SM SCT060 BKN090 OVC130 22/21 A2999 RMK AO2 SLP150 T02170206 $
KSYR 150654Z 30003KT 10SM SCT060 OVC085 22/21 A3000 RMK AO2 RAE15 SLP153 P0000 T02220206 $
KSYR 150554Z 00000KT 10SM -RA SCT035 OVC090 23/20 A3001 RMK AO2 RAB47 SLP155 PCPN VERY LIGHT P0000 60000 T02330200 10244 20228 58002 $
KSYR 150454Z 22003KT 10SM SCT035 BKN100 OVC160 24/20 A3002 RMK AO2 SLP158 T02390200 403110228 $
KSYR 150354Z 22005KT 10SM BKN032 BKN100 OVC160 24/20 A3001 RMK AO2 SLP157 T02390200 $
KSYR 150254Z 23004KT 10SM FEW080 OVC120 24/21 A3001 RMK AO2 SLP157 T02390206 53005 $
KSYR 150154Z 00000KT 10SM OVC120 23/21 A3001 RMK AO2 SLP157 T02330211 $
KSYR 150054Z 23003KT 10SM BKN150 OVC200 24/21 A3000 RMK AO2 SLP151 T02390211 $
KSYR 142354Z 26004KT 10SM SCT120 BKN150 OVC200 24/21 A3000 RMK AO2 SLP152 60003 T02440211 10311 20239 58006 $
KSYR 142254Z 27004KT 10SM FEW060 BKN120 OVC150 25/21 A3000 RMK AO2 RAE33 SLP153 P0003 T02500206 $
KSYR 142154Z 32011KT 10SM -RA FEW035 BKN065 BKN080 OVC140 27/19 A3002 RMK AO2 RAB10 SLP157 P0000 T02670189 $
KSYR 142054Z 33013KT 10SM SCT065 BKN070 OVC140 28/20 A3002 RMK AO2 SLP158 T02830200 56006 $
KSYR 141954Z VRB05KT 10SM FEW065 SCT090 OVC150 30/20 A3002 RMK AO2 SLP158 T03000200 $
KSYR 141854Z 00000KT 10SM SCT080 BKN150 BKN200 30/21 A3002 RMK AO2 SLP158 T03000206 $
KSYR 141754Z 35008KT 10SM BKN090 BKN120 BKN200 29/21 A3004 RMK AO2 SLP164 60000 T02890206 10289 20250 58005 $
KSYR 141654Z 28008KT 10SM BKN070 OVC085 28/19 A3005 RMK AO2 RAB36E46 SLP168 P0000 T02780194 $
KSYR 141554Z 26008KT 10SM BKN080 OVC160 28/19 A3005 RMK AO2 SLP168 T02830189 $
KSYR 141454Z 25011KT 10SM SCT075 BKN180 27/18 A3005 RMK AO2 SLP169 60000 T02720178 $
KSYR 141354Z 26010KT 10SM SCT080 BKN170 BKN220 27/19 A3005 RMK AO2 SLP171 T02720189 $
KSYR 141254Z 22008KT 10SM FEW065 SCT120 BKN160 26/18 A3005 RMK AO2 RAB17E27 SLP169 P0000 T02560183
KSYR 141154Z 22006KT 10SM SCT065 BKN090 BKN150 26/18 A3006 RMK AO2 SLP173 60000 T02560183 10256 20233 53003
KSYR 141054Z 20006KT 10SM BKN070 BKN095 OVC150 24/17 A3005 RMK AO2 SLP170 T02390172
KSYR 140954Z 19008KT 10SM BKN080 BKN095 OVC120 24/17 A3005 RMK AO2 RAB03E14 SLP169 P0000 T02390172
KSYR 140854Z 21007KT 10SM BKN080 OVC120 24/17 A3005 RMK AO2 SLP170 T02440167 55005
KSYR 140754Z 21007KT 10SM FEW080 BKN110 BKN150 24/16 A3005 RMK AO2 SLP170 T02440161
KSYR 140654Z 20008KT 10SM FEW090 SCT120 BKN150 BKN200 24/16 A3007 RMK AO2 SLP174 T02440161
KSYR 140554Z 19005KT 10SM FEW090 OVC120 24/16 A3007 RMK AO2 SLP175 T02440161 10278 20244 58003
KSYR 140454Z 22003KT 10SM FEW075 SCT110 BKN150 BKN200 25/17 A3009 RMK AO2 SLP182 T02500167 403060139
KSYR 140354Z 19008KT 10SM FEW075 FEW110 SCT150 BKN200 26/16 A3008 RMK AO2 SLP179 T02560161
KSYR 140254Z 13006KT 10SM SCT150 BKN200 24/17 A3008 RMK AO2 SLP178 T02440167 58004
KSYR 140154Z 12004KT 10SM SCT160 BKN200 25/17 A3009 RMK AO2 SLP184 T02500167
KSYR 140054Z 12006KT 10SM SCT200 BKN250 26/16 A3009 RMK AO2 SLP182 T02610156
KSYR 132354Z 15007KT 10SM FEW220 BKN250 28/14 A3009 RMK AO2 SLP183 T02780144 10306 20278 56013
KSYR 132254Z 16008KT 10SM FEW220 SCT250 29/14 A3010 RMK AO2 SLP186 T02890139
KSYR 132154Z VRB04KT 10SM FEW070 BKN250 30/14 A3011 RMK AO2 SLP191 T03000139
KSYR 132054Z 21006KT 10SM FEW070 BKN250 30/14 A3013 RMK AO2 SLP196 T03000139 55012
KSYR 131954Z 15005KT 10SM BKN250 29/13 A3012 RMK AO2 SLP195 T02940128
KSYR 131854Z 05006KT 10SM SCT200 BKN250 28/17 A3015 RMK AO2 SLP203 T02830167
KSYR 131754Z 00000KT 10SM FEW070 BKN250 29/13 A3016 RMK AO2 SLP208 T02940133 10294 20183 58017
KSYR 131654Z 10006KT 10SM FEW070 SCT250 28/14 A3018 RMK AO2 SLP215 T02830144
KSYR 131554Z 00000KT 10SM FEW070 BKN250 28/14 A3020 RMK AO2 SLP221 T02830144
KSYR 131454Z VRB03KT 10SM SCT250 27/15 A3021 RMK AO2 SLP225 T02670150 56007
KSYR 131354Z 00000KT 10SM SCT250 24/16 A3022 RMK AO2 SLP228 T02440156
KSYR 131254Z 12004KT 10SM FEW200 SCT250 21/15 A3022 RMK AO2 SLP228 T02110150
KSYR 131154Z 11005KT 10SM FEW180 SCT200 BKN250 18/14 A3023 RMK AO2 SLP233 T01830139 10183 20139 51005
KSYR 131054Z 12004KT 10SM FEW180 SCT200 BKN250 16/14 A3023 RMK AO2 SLP232 T01610139
KSYR 130954Z 10004KT 10SM FEW180 FEW200 BKN250 15/13 A3022 RMK AO2 SLP229 T01500133
KSYR 130854Z 10004KT 10SM FEW200 BKN250 14/13 A3022 RMK AO2 SLP228 T01390128 53004
KSYR 130754Z 12004KT 10SM FEW200 BKN260 16/13 A3021 RMK AO2 SLP225 T01560133
KSYR 130654Z 11005KT 10SM FEW200 BKN260 16/14 A3020 RMK AO2 SLP223 T01560139
KSYR 130554Z 11004KT 10SM FEW180 BKN250 16/14 A3021 RMK AO2 SLP223 T01610139 10250 20161 56002